^^
Datos históricos de la estación: Murcia-Puente Tocinos
Diario Informe para Diciembre 15, 2019 Unidades:  Ingés    Métrico   Ambas
Diario Semanal Mensual Anual
  Máxima: Mínima: Promedio:
Temperatura: 64.2 °F 51.6 °F 55.8 °F
Punto de rocio: 48.9 °F 40.6 °F 43 °F
Humedad: 82% 42.6% 63%
Velocidad viento: 8.7mph 2mph 6mph
Racha viento: 16.1mph - -
Viento- - SSO
Presión: 30 in 29.9 in -
Precipitación: 0 in    
 
 
Tabla de datos para Diciembre 15, 2019
Hora Temperatura Punto de rocio Presión Viento Velocidad viento Racha viento Humedad Intensidad lluvia(por hora) Nubes
00:04 55 °F 42.8 °F 30 in SSO 6.2 mph 11.5 mph 63.1% 0 in
00:09 54.9 °F 43 °F 30 in SSO 6.4 mph 12 mph 64% 0 in
00:14 54.9 °F 42.8 °F 30 in Sur 6.3 mph 10 mph 64% 0 in
00:19 54.5 °F 42.6 °F 30 in SSO 6.2 mph 9.2 mph 64.3% 0 in
00:24 54.1 °F 42.6 °F 30 in Sur 6.2 mph 11.5 mph 65% 0 in
00:29 54 °F 42.6 °F 30 in Sur 6.2 mph 12 mph 65.4% 0 in
00:34 53.8 °F 42.6 °F 30 in Sur 6.2 mph 9.2 mph 66% 0 in
00:39 53.6 °F 42.4 °F 30 in Sur 6.2 mph 10.7 mph 66% 0 in
00:44 53.4 °F 42.4 °F 30 in Sur 6.3 mph 11 mph 66.2% 0 in
00:49 53.2 °F 42.6 °F 30 in Sur 6.4 mph 10.4 mph 67% 0 in
00:54 53.2 °F 42.6 °F 30 in Sur 6.4 mph 10.4 mph 67% 0 in
00:59 53.2 °F 42.6 °F 30 in Sur 6.4 mph 11.8 mph 67% 0 in
01:04 53.2 °F 42.4 °F 30 in Sur 6.4 mph 12 mph 66.7% 0 in
01:09 53.4 °F 42.3 °F 30 in SSO 6.4 mph 12.3 mph 66% 0 in
01:14 53.6 °F 42.4 °F 30 in SSO 7 mph 12 mph 66% 0 in
01:19 53.4 °F 42.3 °F 30 in SSO 7.4 mph 10.4 mph 66% 0 in
01:24 53.4 °F 42.3 °F 30 in SSO 6.8 mph 10.4 mph 66% 0 in
01:29 53.4 °F 42.3 °F 30 in SSO 6.4 mph 10.4 mph 65.8% 0 in
01:34 53.6 °F 42.1 °F 30 in SSO 6.4 mph 10 mph 65% 0 in
01:39 53.8 °F 42.3 °F 30 in SSO 6.4 mph 10.4 mph 65% 0 in
01:44 53.8 °F 42.3 °F 30 in SSO 6.4 mph 10.4 mph 65% 0 in
01:49 53.8 °F 42.3 °F 30 in SSO 6.4 mph 11.8 mph 65% 0 in
01:54 53.8 °F 42.3 °F 30 in Sur 6.7 mph 12 mph 65% 0 in
01:59 53.4 °F 41.9 °F 30 in Sur 6.9 mph 11 mph 65% 0 in
02:04 53.1 °F 42.1 °F 30 in SSO 6.3 mph 10 mph 66% 0 in
02:09 53.1 °F 42.1 °F 30 in SSO 5.9 mph 12.7 mph 66% 0 in
02:14 53.1 °F 42.1 °F 30 in SSO 6.5 mph 13 mph 66% 0 in
02:19 53.1 °F 41.9 °F 30 in SSO 6.9 mph 13.7 mph 66% 0 in
02:24 52.9 °F 41.7 °F 30 in SSO 7.6 mph 14 mph 66% 0 in
02:29 52.7 °F 41.7 °F 30 in Sur 8.1 mph 12 mph 66.3% 0 in
02:34 52.3 °F 41.7 °F 30 in SSO 7.4 mph 11.5 mph 67% 0 in
02:39 52.3 °F 41.7 °F 30 in SSO 6.9 mph 12 mph 67% 0 in
02:44 52.3 °F 41.7 °F 30 in Sur 6.9 mph 11.5 mph 67% 0 in
02:49 52.3 °F 41.7 °F 30 in Sur 6.9 mph 15 mph 66.9% 0 in
02:54 52.5 °F 41.5 °F 30 in SSO 7.2 mph 15 mph 66% 0 in
02:59 52.9 °F 41.7 °F 30 in SSO 7.4 mph 12 mph 66% 0 in
03:04 52.9 °F 41.5 °F 30 in SSO 7.4 mph 11.4 mph 65.2% 0 in
03:09 52.9 °F 41.4 °F 30 in SSO 7.4 mph 11 mph 65% 0 in
03:14 52.9 °F 41.4 °F 30 in SSO 6.5 mph 11 mph 65% 0 in
03:19 52.9 °F 41.4 °F 30 in SSO 5.9 mph 11.5 mph 65% 0 in
03:24 52.7 °F 41.5 °F 30 in SSO 6.8 mph 12 mph 65.6% 0 in
03:29 52.7 °F 41.5 °F 30 in SSO 7.4 mph 12.3 mph 65.4% 0 in
03:34 52.7 °F 41.4 °F 30 in SSO 7.5 mph 13 mph 65.1% 0 in
03:39 52.7 °F 41.4 °F 30 in SSO 7.6 mph 13 mph 65% 0 in
03:44 52.7 °F 41.4 °F 30 in SSO 7.2 mph 12.7 mph 65% 0 in
03:49 52.7 °F 41.4 °F 30 in SSO 6.9 mph 13 mph 65% 0 in
03:54 52.5 °F 41.2 °F 30 in SSO 6.6 mph 12 mph 65.1% 0 in
03:59 52.5 °F 41.5 °F 30 in SO 6.4 mph 10.4 mph 66% 0 in
04:04 52.5 °F 41.5 °F 30 in SSO 6.1 mph 12.5 mph 66% 0 in
04:09 52.3 °F 41.4 °F 30 in SSO 5.9 mph 13 mph 66% 0 in
04:14 52.3 °F 41.4 °F 30 in SSO 7.2 mph 13.8 mph 66% 0 in
04:19 52.3 °F 41.4 °F 30 in SO 8.1 mph 14 mph 66% 0 in
04:24 52.3 °F 41.4 °F 30 in SO 8.1 mph 14 mph 66% 0 in
04:29 52.3 °F 41.4 °F 30 in SO 8.1 mph 13 mph 66% 0 in
04:34 52.3 °F 41.4 °F 30 in SSO 8.3 mph 13.8 mph 66% 0 in
04:39 52.3 °F 41.4 °F 30 in SSO 8.5 mph 15 mph 66% 0 in
04:44 52.5 °F 41.2 °F 30 in SSO 8.6 mph 15 mph 65.1% 0 in
04:49 52.5 °F 41.2 °F 30 in SO 8.7 mph 15 mph 65.2% 0 in
04:54 52.3 °F 41.2 °F 30 in SSO 8 mph 16.1 mph 66% 0 in
04:59 52.2 °F 41.2 °F 30 in SSO 7.6 mph 16 mph 66% 0 in
05:04 52.2 °F 41.2 °F 30 in SSO 7.1 mph 13.8 mph 66% 0 in
05:09 52.2 °F 41 °F 30 in SSO 6.9 mph 14 mph 66% 0 in
05:14 52.2 °F 41.2 °F 30 in SSO 7.3 mph 12 mph 66% 0 in
05:19 52.2 °F 41.2 °F 30 in SSO 7.6 mph 13 mph 66% 0 in
05:24 52.2 °F 41.2 °F 30 in SSO 7.5 mph 13 mph 66% 0 in
05:29 52.2 °F 41.2 °F 30 in SSO 7.4 mph 13 mph 66% 0 in
05:34 52.2 °F 41.2 °F 30 in SSO 7.4 mph 12 mph 66% 0 in
05:39 52.2 °F 41.2 °F 30 in SSO 7.4 mph 12.7 mph 66% 0 in
05:44 52.2 °F 41 °F 30 in SSO 7.5 mph 13 mph 66% 0 in
05:49 52 °F 41 °F 30 in SSO 7.6 mph 13 mph 66% 0 in
05:54 52 °F 41 °F 30 in SSO 7.2 mph 13 mph 66% 0 in
05:59 51.8 °F 41 °F 30 in SSO 6.9 mph 11.5 mph 66.7% 0 in
06:04 51.6 °F 41 °F 30 in SSO 7.2 mph 12.7 mph 67% 0 in
06:09 51.6 °F 41 °F 30 in SSO 7.4 mph 13.8 mph 67% 0 in
06:14 51.6 °F 41 °F 30 in SSO 7.5 mph 14 mph 67% 0 in
06:19 51.6 °F 41 °F 30 in SSO 7.6 mph 13.8 mph 67% 0 in
06:24 51.8 °F 40.8 °F 30 in SSO 8.1 mph 14 mph 66.2% 0 in
06:29 51.8 °F 40.8 °F 30 in SSO 8.5 mph 13 mph 66% 0 in
06:34 51.6 °F 40.6 °F 30 in SSO 8 mph 12.7 mph 66% 0 in
06:39 51.6 °F 40.6 °F 30 in SSO 7.6 mph 13 mph 66% 0 in
06:44 51.6 °F 40.8 °F 30 in SSO 7.6 mph 13 mph 66.3% 0 in
06:49 51.6 °F 40.8 °F 30 in SSO 7.6 mph 14 mph 66.7% 0 in
06:54 51.8 °F 40.8 °F 30 in SSO 8.1 mph 15 mph 66% 0 in
06:59 51.8 °F 40.8 °F 30 in SSO 8.5 mph 15 mph 66% 0 in
07:04 51.8 °F 40.8 °F 30 in SSO 8.3 mph 14 mph 66% 0 in
07:09 51.8 °F 40.8 °F 30 in SSO 8.1 mph 13 mph 66% 0 in
07:14 52 °F 40.8 °F 30 in SSO 7.7 mph 12 mph 66% 0 in
07:19 51.8 °F 40.8 °F 30 in SSO 7.4 mph 13.5 mph 66% 0 in
07:24 52 °F 40.8 °F 30 in SSO 7.8 mph 14 mph 66% 0 in
07:29 52 °F 41 °F 30 in SSO 8.1 mph 13 mph 66% 0 in
07:34 52 °F 41 °F 30 in SSO 7.8 mph 12 mph 66% 0 in
07:39 52 °F 41 °F 30 in SSO 7.6 mph 14 mph 66% 0 in
07:44 52 °F 41 °F 30 in SSO 7.5 mph 14 mph 66% 0 in
07:49 52 °F 41 °F 30 in SSO 7.4 mph 12 mph 66% 0 in
07:54 51.8 °F 40.8 °F 30 in SSO 6.8 mph 10.4 mph 66% 0 in
07:59 51.6 °F 40.6 °F 30 in SSO 6.4 mph 10.4 mph 66% 0 in
08:04 51.6 °F 40.6 °F 30 in SSO 6.4 mph 14.5 mph 66% 0 in
08:09 51.8 °F 40.6 °F 30 in SSO 6.4 mph 15 mph 66% 0 in
08:14 51.6 °F 40.6 °F 30 in SSO 7.6 mph 13.8 mph 66% 0 in
08:19 51.8 °F 40.8 °F 30 in SSO 8.5 mph 14 mph 66% 0 in
08:24 51.8 °F 40.8 °F 30 in SO 8.3 mph 13 mph 66% 0 in
08:29 51.8 °F 40.8 °F 30 in SO 8.1 mph 12.7 mph 66% 0 in
08:34 52 °F 41 °F 30 in SO 7.4 mph 13.5 mph 66% 0 in
08:39 52 °F 40.8 °F 30 in SO 6.9 mph 13 mph 65.4% 0 in
08:44 52.2 °F 40.6 °F 30 in SO 7.3 mph 12.7 mph 65% 0 in
08:49 52.2 °F 40.6 °F 30 in SSO 7.6 mph 13 mph 65% 0 in
08:54 52.2 °F 40.6 °F 30 in SSO 7.2 mph 14 mph 65% 0 in
08:59 52.2 °F 40.6 °F 30 in SSO 6.9 mph 14 mph 65% 0 in
09:04 52 °F 40.6 °F 30 in SSO 7.3 mph 13 mph 65% 0 in
09:09 52 °F 40.6 °F 30 in SO 7.6 mph 13 mph 65% 0 in
09:14 52 °F 40.8 °F 30 in SO 7.2 mph 12.5 mph 65.6% 0 in
09:19 52.2 °F 40.6 °F 30 in SSO 6.9 mph 13.8 mph 65% 0 in
09:24 52.3 °F 40.8 °F 30 in SO 7.3 mph 14 mph 64.9% 0 in
09:29 52.5 °F 40.8 °F 30 in SSO 7.6 mph 13 mph 64% 0 in
09:34 52.7 °F 41 °F 30 in SSO 7.5 mph 13 mph 64% 0 in
09:39 53.1 °F 41 °F 30 in SSO 7.4 mph 14.5 mph 63.8% 0 in
09:44 53.2 °F 41 °F 30 in SSO 7.8 mph 15 mph 63.3% 0 in
09:49 53.4 °F 41.2 °F 30 in SSO 8.1 mph 15 mph 63% 0 in
09:54 53.8 °F 41.4 °F 30 in SO 8.3 mph 15 mph 63% 0 in
09:59 54 °F 41.5 °F 30 in SSO 8.5 mph 15 mph 62.8% 0 in
10:04 54 °F 41.5 °F 30 in SSO 7.8 mph 14 mph 63% 0 in
10:09 54.1 °F 41.5 °F 30 in SSO 7.4 mph 15 mph 62.6% 0 in
10:14 54.1 °F 41.4 °F 30 in SSO 7.5 mph 15 mph 62% 0 in
10:19 54.3 °F 41.5 °F 30 in SSO 7.6 mph 13 mph 62% 0 in
10:24 54.5 °F 41.7 °F 30 in SSO 7.2 mph 13.8 mph 62% 0 in
10:29 54.9 °F 42.1 °F 30 in SSO 6.9 mph 14 mph 62% 0 in
10:34 55 °F 41.9 °F 30 in SSO 7.8 mph 13.8 mph 61.1% 0 in
10:39 55.2 °F 42.3 °F 30 in SSO 8.5 mph 14 mph 61.2% 0 in
10:44 55.6 °F 42.3 °F 30 in SSO 8.3 mph 13.8 mph 61% 0 in
10:49 55.8 °F 42.4 °F 30 in SSO 8.1 mph 14 mph 60.9% 0 in
10:54 55.9 °F 42.4 °F 30 in SSO 7.7 mph 12 mph 60.7% 0 in
10:59 56.1 °F 42.4 °F 30 in SSO 7.4 mph 13.8 mph 60.1% 0 in
11:04 56.1 °F 42.4 °F 30 in SSO 7.5 mph 14 mph 60% 0 in
11:09 56.1 °F 42.4 °F 30 in SSO 7.6 mph 14 mph 60% 0 in
11:14 56.3 °F 42.4 °F 30 in SSO 7.5 mph 14 mph 59.7% 0 in
11:19 56.3 °F 42.4 °F 30 in SSO 7.4 mph 14 mph 60% 0 in
11:24 56.5 °F 42.8 °F 30 in SSO 7.1 mph 11 mph 60% 0 in
11:29 56.5 °F 42.8 °F 30 in SSO 6.9 mph 12.7 mph 60% 0 in
11:34 56.7 °F 42.8 °F 30 in SSO 6.5 mph 13 mph 59.9% 0 in
11:39 56.8 °F 42.8 °F 30 in SSO 6.2 mph 13 mph 59.2% 0 in
11:44 57 °F 42.6 °F 30 in SSO 6.3 mph 13 mph 58.4% 0 in
11:49 57.4 °F 42.6 °F 30 in SSO 6.4 mph 11.8 mph 57.6% 0 in
11:54 57.6 °F 42.3 °F 30 in SSO 7 mph 12 mph 57% 0 in
11:59 57.7 °F 42.4 °F 30 in SSO 7.4 mph 10 mph 56.9% 0 in
12:04 58.3 °F 42.4 °F 30 in SSO 5.7 mph 10.4 mph 55.8% 0 in
12:09 58.5 °F 42.3 °F 30 in SSO 4.7 mph 10.7 mph 55% 0 in
12:14 58.5 °F 42.3 °F 30 in SSO 5.7 mph 11 mph 55% 0 in
12:19 58.5 °F 42.4 °F 30 in SSO 6.4 mph 10 mph 55% 0 in
12:24 58.8 °F 42.6 °F 30 in Sur 6.1 mph 10 mph 54.8% 0 in
12:29 59.4 °F 42.6 °F 30 in Sur 5.9 mph 11.8 mph 53.9% 0 in
12:34 59.4 °F 42.6 °F 30 in SO 6.2 mph 12 mph 53.8% 0 in
12:39 59.4 °F 42.4 °F 30 in SO 6.4 mph 12.3 mph 53.3% 0 in
12:44 59.5 °F 42.4 °F 30 in SSO 6.4 mph 13 mph 53% 0 in
12:49 59.7 °F 42.6 °F 30 in Sur 6.4 mph 13 mph 53% 0 in
12:54 60.1 °F 42.4 °F 30 in SSO 6.7 mph 14 mph 52.1% 0 in
12:59 59.7 °F 42.3 °F 30 in SSO 6.9 mph 14 mph 52.3% 0 in
13:04 60.1 °F 42.4 °F 30 in Sur 7.6 mph 12 mph 52% 0 in
13:09 60.4 °F 42.6 °F 30 in SSO 8.1 mph 12 mph 51.9% 0 in
13:14 60.4 °F 42.4 °F 30 in SSO 7.4 mph 12.7 mph 51.5% 0 in
13:19 60.4 °F 42.6 °F 30 in Sur 6.9 mph 13 mph 51.5% 0 in
13:24 60.6 °F 42.4 °F 30 in SSO 7.2 mph 10.7 mph 51.1% 0 in
13:29 60.8 °F 42.4 °F 30 in Sur 7.4 mph 11 mph 51% 0 in
13:34 61 °F 42.4 °F 30 in Sur 7.1 mph 10.4 mph 50.8% 0 in
13:39 61.3 °F 42.8 °F 30 in SSO 6.9 mph 10 mph 50.5% 0 in
13:44 61.3 °F 42.6 °F 29.9 in Sur 6.5 mph 11.8 mph 50% 0 in
13:49 61.7 °F 42.6 °F 29.9 in SSO 6.2 mph 12.7 mph 49.5% 0 in
13:54 61.9 °F 42.6 °F 29.9 in SSO 6.3 mph 13 mph 49.3% 0 in
13:59 61.9 °F 42.4 °F 29.9 in Sur 6.4 mph 12 mph 49.1% 0 in
14:04 61.9 °F 42.4 °F 29.9 in Sur 7 mph 12.7 mph 49% 0 in
14:09 61.9 °F 42.6 °F 29.9 in SSO 7.4 mph 13 mph 49% 0 in
14:14 62.1 °F 42.3 °F 29.9 in SSE 7.1 mph 12.5 mph 48.3% 0 in
14:19 62.2 °F 42.3 °F 29.9 in Sur 6.9 mph 13 mph 48% 0 in
14:24 62.2 °F 42.3 °F 29.9 in Sur 7.2 mph 12 mph 48% 0 in
14:29 62.2 °F 42.1 °F 29.9 in Sur 7.4 mph 11 mph 47.7% 0 in
14:34 62.1 °F 42.3 °F 29.9 in SSO 6.8 mph 11.5 mph 48% 0 in
14:39 62.2 °F 42.3 °F 29.9 in SSO 6.4 mph 12 mph 48% 0 in
14:44 62.4 °F 42.3 °F 29.9 in Sur 6.3 mph 10 mph 47.7% 0 in
14:49 62.8 °F 42.3 °F 29.9 in SSE 6.2 mph 9.2 mph 47% 0 in
14:54 63 °F 42.1 °F 29.9 in SSO 5.6 mph 9 mph 46.5% 0 in
14:59 63 °F 42.3 °F 29.9 in SSO 5.2 mph 9.7 mph 46.8% 0 in
15:04 63 °F 42.3 °F 29.9 in SSE 5.7 mph 10 mph 46.7% 0 in
15:09 63 °F 41.9 °F 29.9 in SSE 5.9 mph 10.7 mph 46.2% 0 in
15:14 63.1 °F 42.1 °F 29.9 in Sur 5.9 mph 11 mph 46% 0 in
15:19 63.3 °F 42.3 °F 29.9 in Sur 5.9 mph 10 mph 46% 0 in
15:24 63.3 °F 42.1 °F 29.9 in SSE 5.6 mph 10.4 mph 45.6% 0 in
15:29 63.7 °F 41.9 °F 29.9 in Sur 5.4 mph 10.4 mph 45% 0 in
15:34 63.7 °F 41.9 °F 29.9 in SSE 5.9 mph 10.4 mph 45% 0 in
15:39 63.9 °F 42.1 °F 29.9 in SSE 6.2 mph 10 mph 45% 0 in
15:44 63.9 °F 42.1 °F 29.9 in SSE 5.7 mph 12.3 mph 45% 0 in
15:49 63.9 °F 41.9 °F 29.9 in Sur 5.4 mph 13 mph 44.8% 0 in
15:54 63.9 °F 41.5 °F 29.9 in SSE 6.3 mph 10.4 mph 44.2% 0 in
15:59 63.9 °F 41.5 °F 29.9 in Sur 6.9 mph 10 mph 44% 0 in
16:04 63.9 °F 41.4 °F 29.9 in SSE 6.9 mph 10.4 mph 43.8% 0 in
16:09 64 °F 41.4 °F 29.9 in Sur 6.9 mph 10.4 mph 43.4% 0 in
16:14 64 °F 41.2 °F 29.9 in SSE 6.5 mph 10 mph 43% 0 in
16:19 64 °F 41.4 °F 29.9 in SSO 6.2 mph 9 mph 43.5% 0 in
16:24 64.2 °F 41.2 °F 29.9 in Sur 5.6 mph 9.2 mph 43% 0 in
16:29 64.2 °F 41.2 °F 29.9 in Sur 5.2 mph 9.2 mph 43% 0 in
16:34 64.2 °F 41.2 °F 29.9 in Sur 5.2 mph 9 mph 43% 0 in
16:39 64.2 °F 41.2 °F 29.9 in SSO 5.2 mph 9.2 mph 42.9% 0 in
16:44 64.2 °F 41.2 °F 29.9 in Sur 4.9 mph 9 mph 43% 0 in
16:49 64.2 °F 41 °F 29.9 in SSE 4.7 mph 7 mph 42.6% 0 in
16:54 64.2 °F 41.2 °F 29.9 in SSE 4.5 mph 7 mph 43% 0 in
16:59 64.2 °F 41.2 °F 29.9 in Sur 4.3 mph 6 mph 43% 0 in
17:04 64 °F 41.4 °F 29.9 in Sur 3.5 mph 5 mph 43.4% 0 in
17:09 63.9 °F 41.5 °F 29.9 in Sur 3.1 mph 5.2 mph 44% 0 in
17:14 63.9 °F 41.4 °F 29.9 in Sur 3 mph 5 mph 44% 0 in
17:19 63.7 °F 41.7 °F 29.9 in Sur 2.9 mph 5.2 mph 44.7% 0 in
17:24 63.5 °F 41.9 °F 29.9 in SSO 3 mph 5.8 mph 45.3% 0 in
17:29 63.1 °F 42.8 °F 29.9 in Sur 3.1 mph 6.2 mph 47.4% 0 in
17:34 63 °F 43.9 °F 29.9 in Sur 3.4 mph 6 mph 49.7% 0 in
17:39 62.8 °F 44.2 °F 29.9 in SSE 3.6 mph 6 mph 50.7% 0 in
17:44 62.4 °F 43.7 °F 29.9 in SSE 3.3 mph 6 mph 50.5% 0 in
17:49 62.1 °F 43.9 °F 29.9 in ESE 3.1 mph 5 mph 51.2% 0 in
17:54 61.7 °F 44.4 °F 29.9 in SE 3 mph 5.2 mph 53.1% 0 in
17:59 61.2 °F 45 °F 29.9 in SE 2.9 mph 5.2 mph 55.1% 0 in
18:03 60.8 °F 45.1 °F 29.9 in SE 3 mph 5.2 mph 56.2% 0 in
19:24 57.6 °F 46.2 °F 29.9 in Sur 2.4 mph 4.6 mph 66% 0 in
19:29 57.6 °F 46.4 °F 29.9 in Sur 2.4 mph 5.9 mph 66.2% 0 in
19:34 57.4 °F 46.9 °F 29.9 in SSO 2.4 mph 6 mph 68% 0 in
19:39 57.2 °F 47.3 °F 29.9 in SSO 2.4 mph 6.2 mph 69.6% 0 in
19:44 57 °F 47.5 °F 29.9 in SSO 2.7 mph 6 mph 70.7% 0 in
19:49 56.8 °F 47.8 °F 29.9 in Sur 3.1 mph 5 mph 71.8% 0 in
19:54 56.7 °F 48 °F 29.9 in Sur 3 mph 5 mph 72.7% 0 in
19:59 56.5 °F 48 °F 29.9 in SSO 2.9 mph 6.2 mph 73.3% 0 in
20:04 56.3 °F 48 °F 29.9 in SSO 3.5 mph 8.1 mph 74% 0 in
20:09 56.1 °F 48.2 °F 29.9 in SSO 4 mph 8.1 mph 74.6% 0 in
20:14 56.1 °F 48.4 °F 29.9 in SSO 4.2 mph 8 mph 75% 0 in
20:19 55.9 °F 48.4 °F 29.9 in Sur 4.3 mph 7 mph 75.6% 0 in
20:24 55.9 °F 48.6 °F 29.9 in SSO 4 mph 6.2 mph 76% 0 in
20:29 55.9 °F 48.6 °F 29.9 in SO 3.6 mph 6 mph 76% 0 in
20:34 55.8 °F 48.6 °F 29.9 in OSO 3.4 mph 6 mph 76.2% 0 in
20:39 55.8 °F 48.6 °F 29.9 in OSO 3.1 mph 5 mph 76.4% 0 in
20:44 55.6 °F 48.6 °F 29.9 in OSO 2.5 mph 4.7 mph 76.9% 0 in
20:49 55.4 °F 48.4 °F 29.9 in OSO 2 mph 5 mph 77.2% 0 in
20:54 55.2 °F 48.6 °F 29.9 in OSO 2.2 mph 5 mph 78% 0 in
20:59 55 °F 48.4 °F 29.9 in OSO 2.4 mph 5 mph 78.3% 0 in
21:04 55 °F 48.6 °F 29.9 in OSO 2.7 mph 5 mph 79% 0 in
21:09 54.9 °F 48.7 °F 29.9 in SO 2.9 mph 5.8 mph 79.5% 0 in
21:14 54.9 °F 48.7 °F 29.9 in SSO 3 mph 6 mph 80% 0 in
21:19 55 °F 48.9 °F 29.9 in SSO 3.1 mph 6 mph 80% 0 in
21:24 55 °F 48.9 °F 29.9 in SSO 3.4 mph 7.4 mph 80% 0 in
21:29 55 °F 48.9 °F 29.9 in SSO 3.6 mph 7 mph 80% 0 in
21:34 54.9 °F 48.7 °F 29.9 in SSO 3.9 mph 8.1 mph 80% 0 in
21:39 54.9 °F 48.7 °F 29.9 in SSO 4.3 mph 8.1 mph 80% 0 in
21:44 54.9 °F 48.7 °F 29.9 in SSE 4.3 mph 6 mph 80% 0 in
21:49 54.9 °F 48.7 °F 29.9 in Sur 4.3 mph 5 mph 80% 0 in
21:54 54.7 °F 48.6 °F 29.9 in Sur 3.7 mph 5.8 mph 80% 0 in
21:59 54.7 °F 48.6 °F 29.9 in Sur 3.1 mph 6 mph 80% 0 in
22:04 54.5 °F 48.6 °F 29.9 in SE 3 mph 5 mph 80% 0 in
22:09 54.3 °F 48 °F 29.9 in SE 2.9 mph 5 mph 79.2% 0 in
22:14 54.1 °F 47.7 °F 29.9 in SE 3 mph 5.9 mph 78.8% 0 in
22:19 53.8 °F 47.1 °F 29.9 in SE 3.1 mph 6.2 mph 78.3% 0 in
22:24 53.4 °F 47.1 °F 29.9 in SE 3.5 mph 6.2 mph 79% 0 in
22:29 53.2 °F 46.9 °F 29.9 in SSE 4 mph 6 mph 79% 0 in
22:34 53.2 °F 46.9 °F 29.9 in SE 4 mph 6 mph 79% 0 in
22:39 53.2 °F 46.9 °F 29.9 in SE 4 mph 6 mph 79% 0 in
22:44 53.2 °F 46.9 °F 29.9 in SSE 3.5 mph 5.8 mph 79.4% 0 in
22:49 53.2 °F 47.1 °F 29.9 in SE 3.1 mph 6 mph 80% 0 in
22:54 53.2 °F 47.1 °F 29.9 in SSE 3.1 mph 6.2 mph 80% 0 in
22:59 53.1 °F 47.1 °F 29.9 in SSE 3.1 mph 6 mph 80% 0 in
23:04 53.1 °F 47.1 °F 29.9 in SSE 3.1 mph 6 mph 80% 0 in
23:09 53.1 °F 47.1 °F 29.9 in SE 3.1 mph 5.2 mph 80% 0 in
23:14 52.9 °F 46.9 °F 29.9 in SE 3 mph 5.2 mph 80% 0 in
23:19 52.9 °F 46.8 °F 29.9 in SE 2.9 mph 5 mph 80.1% 0 in
23:24 52.5 °F 46.9 °F 29.9 in SSE 3 mph 5 mph 81% 0 in
23:29 52.5 °F 46.9 °F 29.9 in SSE 3.1 mph 5 mph 81% 0 in
23:34 52.5 °F 46.9 °F 29.9 in SSE 3 mph 5.2 mph 81.2% 0 in
23:39 52.3 °F 46.9 °F 29.9 in SE 2.9 mph 5 mph 82% 0 in
23:44 52.3 °F 46.9 °F 29.9 in SE 2.6 mph 5 mph 82% 0 in
23:49 52.2 °F 46.8 °F 29.9 in SSE 2.4 mph 5 mph 82% 0 in
23:54 52.2 °F 46.8 °F 29.9 in SSO 2.4 mph 5 mph 82% 0 in
23:59 52 °F 46.8 °F 29.9 in SSO 2.4 mph 3 mph 82% 0 in
Murcia-Puente Tocinos, Espa?a
Compliments of Weather Underground - 3 mb

La estación de MeteoMurcia.com, publica sus datos en los siguientes proyectos:

Weather Underground PWS IMURCIAP2 Meteoclimatic www.awekas.at

W3Counter
Web Analytics